Norway, Kansas
Current Conditions -  °F | °C
As of 8:55 PM on Monday 20 Oct 2014 (Local Time) from KCNK Reporting Station
Clear Clear  
Wind Chill: 56°   Ceiling: Unl
Heat Index: 56°   Visibility: 10mi
Dew Point: 45°   Wind: 7mph
Humidity: 67%   Direction: 160°SSE
Pressure: 30.06"   Gusts: NA
Location:  39.7°N, 97.77°W
Report Text: KCNK 210155Z AUTO 16006KT 10SM CLR 13/07 A3006 RMK AO2 SLP177 T01330072
Loading
Personal Weather Stations






























Interactive Weather Map New forecast layout! Learn more

10-Day Weather Forecast

Advertisements
Track Severe Weather on mobile